sensor_id;sensor_type;location;lat;lon;timestamp;pressure;altitude;pressure_sealevel;temperature;humidity
9695;BME280;4690;52.422;13.486;2024-01-30T00:10:17;102677.69;;;2.55;76.38
9695;BME280;4690;52.422;13.486;2024-01-30T00:12:43;102688.03;;;2.50;76.47
9695;BME280;4690;52.422;13.486;2024-01-30T00:15:09;102680.31;;;2.45;77.16
9695;BME280;4690;52.422;13.486;2024-01-30T00:17:36;102689.88;;;2.50;77.19
9695;BME280;4690;52.422;13.486;2024-01-30T00:20:03;102691.22;;;2.55;76.62
9695;BME280;4690;52.422;13.486;2024-01-30T00:22:34;102683.00;;;2.57;76.98
9695;BME280;4690;52.422;13.486;2024-01-30T00:25:00;102685.44;;;2.60;76.84
9695;BME280;4690;52.422;13.486;2024-01-30T00:27:26;102687.03;;;2.62;76.17
9695;BME280;4690;52.422;13.486;2024-01-30T00:29:53;102677.34;;;2.60;76.50
9695;BME280;4690;52.422;13.486;2024-01-30T00:32:19;102681.88;;;2.59;76.52
9695;BME280;4690;52.422;13.486;2024-01-30T00:34:45;102686.31;;;2.60;76.41
9695;BME280;4690;52.422;13.486;2024-01-30T00:37:10;102685.31;;;2.61;76.38
9695;BME280;4690;52.422;13.486;2024-01-30T00:39:36;102681.88;;;2.59;76.64
9695;BME280;4690;52.422;13.486;2024-01-30T00:42:02;102678.19;;;2.60;76.22
9695;BME280;4690;52.422;13.486;2024-01-30T00:44:27;102669.47;;;2.57;76.17
9695;BME280;4690;52.422;13.486;2024-01-30T00:46:53;102683.00;;;2.57;76.48
9695;BME280;4690;52.422;13.486;2024-01-30T00:49:19;102676.00;;;2.54;76.56
9695;BME280;4690;52.422;13.486;2024-01-30T00:51:46;102669.84;;;2.52;76.17
9695;BME280;4690;52.422;13.486;2024-01-30T00:54:11;102674.41;;;2.52;76.56
9695;BME280;4690;52.422;13.486;2024-01-30T00:56:37;102673.78;;;2.48;76.37
9695;BME280;4690;52.422;13.486;2024-01-30T00:59:03;102677.34;;;2.49;76.94
9695;BME280;4690;52.422;13.486;2024-01-30T01:01:29;102678.09;;;2.51;76.32
9695;BME280;4690;52.422;13.486;2024-01-30T01:03:54;102684.22;;;2.53;76.74
9695;BME280;4690;52.422;13.486;2024-01-30T01:06:20;102678.09;;;2.51;76.38
9695;BME280;4690;52.422;13.486;2024-01-30T01:08:46;102671.94;;;2.49;76.41
9695;BME280;4690;52.422;13.486;2024-01-30T01:11:11;102674.91;;;2.45;76.26
9695;BME280;4690;52.422;13.486;2024-01-30T01:13:37;102672.47;;;2.42;75.99
9695;BME280;4690;52.422;13.486;2024-01-30T01:16:03;102674.28;;;2.42;76.14
9695;BME280;4690;52.422;13.486;2024-01-30T01:18:29;102674.28;;;2.42;76.58
9695;BME280;4690;52.422;13.486;2024-01-30T01:20:55;102679.81;;;2.40;75.98
9695;BME280;4690;52.422;13.486;2024-01-30T01:23:21;102668.50;;;2.35;76.10
9695;BME280;4690;52.422;13.486;2024-01-30T01:25:46;102672.47;;;2.31;76.26
9695;BME280;4690;52.422;13.486;2024-01-30T01:28:12;102662.75;;;2.29;76.45
9695;BME280;4690;52.422;13.486;2024-01-30T01:30:38;102665.47;;;2.29;76.64
9695;BME280;4690;52.422;13.486;2024-01-30T01:33:04;102666.44;;;2.28;76.35
9695;BME280;4690;52.422;13.486;2024-01-30T01:35:32;102677.25;;;2.28;76.62
9695;BME280;4690;52.422;13.486;2024-01-30T01:37:58;102675.19;;;2.31;77.00
9695;BME280;4690;52.422;13.486;2024-01-30T01:40:27;102675.44;;;2.28;76.22
9695;BME280;4690;52.422;13.486;2024-01-30T01:42:55;102672.72;;;2.28;76.58
9695;BME280;4690;52.422;13.486;2024-01-30T01:45:22;102663.88;;;2.26;76.68
9695;BME280;4690;52.422;13.486;2024-01-30T01:47:51;102661.16;;;2.26;77.09
9695;BME280;4690;52.422;13.486;2024-01-30T01:50:18;102672.59;;;2.30;77.19
9695;BME280;4690;52.422;13.486;2024-01-30T01:52:47;102663.63;;;2.29;77.04
9695;BME280;4690;52.422;13.486;2024-01-30T01:55:16;102662.88;;;2.27;76.71
9695;BME280;4690;52.422;13.486;2024-01-30T01:57:44;102672.84;;;2.27;76.46
9695;BME280;4690;52.422;13.486;2024-01-30T02:00:11;102658.47;;;2.26;76.98
9695;BME280;4690;52.422;13.486;2024-01-30T02:02:39;102658.47;;;2.26;76.60
9695;BME280;4690;52.422;13.486;2024-01-30T02:05:05;102661.16;;;2.26;76.35
9695;BME280;4690;52.422;13.486;2024-01-30T02:07:31;102651.56;;;2.22;77.00
9695;BME280;4690;52.422;13.486;2024-01-30T02:09:57;102660.94;;;2.18;77.40
9695;BME280;4690;52.422;13.486;2024-01-30T02:12:23;102661.91;;;2.17;77.36
9695;BME280;4690;52.422;13.486;2024-01-30T02:14:50;102657.47;;;2.16;77.26
9695;BME280;4690;52.422;13.486;2024-01-30T02:17:16;102662.78;;;2.17;77.92
9695;BME280;4690;52.422;13.486;2024-01-30T02:19:42;102668.91;;;2.19;77.38
9695;BME280;4690;52.422;13.486;2024-01-30T02:22:09;102658.22;;;2.18;77.75
9695;BME280;4690;52.422;13.486;2024-01-30T02:24:35;102667.19;;;2.18;77.81
9695;BME280;4690;52.422;13.486;2024-01-30T02:27:01;102667.44;;;2.15;77.12
9695;BME280;4690;52.422;13.486;2024-01-30T02:29:26;102665.72;;;2.14;77.87
9695;BME280;4690;52.422;13.486;2024-01-30T02:31:52;102658.56;;;2.13;77.18
9695;BME280;4690;52.422;13.486;2024-01-30T02:34:19;102657.72;;;2.13;77.32
9695;BME280;4690;52.422;13.486;2024-01-30T02:36:45;102660.69;;;2.10;77.37
9695;BME280;4690;52.422;13.486;2024-01-30T02:39:11;102663.38;;;2.10;78.01
9695;BME280;4690;52.422;13.486;2024-01-30T02:41:37;102662.28;;;2.12;77.61
9695;BME280;4690;52.422;13.486;2024-01-30T02:44:06;102657.13;;;2.09;78.30
9695;BME280;4690;52.422;13.486;2024-01-30T02:46:31;102652.69;;;2.08;78.57
9695;BME280;4690;52.422;13.486;2024-01-30T02:48:57;102656.03;;;2.12;78.21
9695;BME280;4690;52.422;13.486;2024-01-30T02:51:23;102657.63;;;2.14;78.39
9695;BME280;4690;52.422;13.486;2024-01-30T02:53:49;102656.72;;;2.14;78.70
9695;BME280;4690;52.422;13.486;2024-01-30T02:56:15;102652.81;;;2.18;78.86
9695;BME280;4690;52.422;13.486;2024-01-30T02:58:41;102655.25;;;2.21;78.94
9695;BME280;4690;52.422;13.486;2024-01-30T03:01:07;102654.16;;;2.23;78.45
9695;BME280;4690;52.422;13.486;2024-01-30T03:03:33;102643.34;;;2.23;78.79
9695;BME280;4690;52.422;13.486;2024-01-30T03:06:01;102654.00;;;2.25;78.58
9695;BME280;4690;52.422;13.486;2024-01-30T03:08:27;102645.91;;;2.25;78.45
9695;BME280;4690;52.422;13.486;2024-01-30T03:10:53;102643.19;;;2.25;78.28
9695;BME280;4690;52.422;13.486;2024-01-30T03:13:21;102637.66;;;2.27;78.49
9695;BME280;4690;52.422;13.486;2024-01-30T03:15:48;102646.91;;;2.24;78.19
9695;BME280;4690;52.422;13.486;2024-01-30T03:18:14;102637.78;;;2.25;78.41
9695;BME280;4690;52.422;13.486;2024-01-30T03:20:40;102642.47;;;2.23;78.63
9695;BME280;4690;52.422;13.486;2024-01-30T03:23:06;102639.03;;;2.21;78.37
9695;BME280;4690;52.422;13.486;2024-01-30T03:25:31;102637.06;;;2.23;78.22
9695;BME280;4690;52.422;13.486;2024-01-30T03:27:57;102635.06;;;2.25;78.32
9695;BME280;4690;52.422;13.486;2024-01-30T03:30:23;102628.56;;;2.28;78.52
9695;BME280;4690;52.422;13.486;2024-01-30T03:32:48;102632.00;;;2.30;77.93
9695;BME280;4690;52.422;13.486;2024-01-30T03:35:14;102628.19;;;2.32;78.24
9695;BME280;4690;52.422;13.486;2024-01-30T03:37:40;102625.50;;;2.32;78.25
9695;BME280;4690;52.422;13.486;2024-01-30T03:40:06;102629.91;;;2.22;78.63
9695;BME280;4690;52.422;13.486;2024-01-30T03:42:32;102628.97;;;2.23;78.74
9695;BME280;4690;52.422;13.486;2024-01-30T03:44:58;102626.00;;;2.26;79.08
9695;BME280;4690;52.422;13.486;2024-01-30T03:47:24;102622.03;;;2.30;79.12
9695;BME280;4690;52.422;13.486;2024-01-30T03:49:49;102623.78;;;2.31;79.10
9695;BME280;4690;52.422;13.486;2024-01-30T03:52:15;102625.38;;;2.34;78.76
9695;BME280;4690;52.422;13.486;2024-01-30T03:54:41;102625.38;;;2.34;78.60
9695;BME280;4690;52.422;13.486;2024-01-30T03:57:07;102620.06;;;2.32;78.98
9695;BME280;4690;52.422;13.486;2024-01-30T03:59:32;102618.22;;;2.33;78.79
9695;BME280;4690;52.422;13.486;2024-01-30T04:01:59;102621.78;;;2.33;78.77
9695;BME280;4690;52.422;13.486;2024-01-30T04:04:25;102620.06;;;2.32;78.25
9695;BME280;4690;52.422;13.486;2024-01-30T04:06:51;102624.50;;;2.33;78.12
9695;BME280;4690;52.422;13.486;2024-01-30T04:09:16;102628.69;;;2.37;78.12
9695;BME280;4690;52.422;13.486;2024-01-30T04:11:42;102623.53;;;2.34;77.94
9695;BME280;4690;52.422;13.486;2024-01-30T04:14:08;102622.91;;;2.31;78.43
9695;BME280;4690;52.422;13.486;2024-01-30T04:16:34;102625.84;;;2.28;78.43
9695;BME280;4690;52.422;13.486;2024-01-30T04:19:00;102620.34;;;2.29;79.08
9695;BME280;4690;52.422;13.486;2024-01-30T04:21:26;102634.72;;;2.30;78.92
9695;BME280;4690;52.422;13.486;2024-01-30T04:23:53;102634.72;;;2.30;78.42
9695;BME280;4690;52.422;13.486;2024-01-30T04:26:19;102624.16;;;2.27;79.08
9695;BME280;4690;52.422;13.486;2024-01-30T04:28:45;102631.53;;;2.24;78.80
9695;BME280;4690;52.422;13.486;2024-01-30T04:31:11;102630.56;;;2.26;78.61
9695;BME280;4690;52.422;13.486;2024-01-30T04:33:37;102630.66;;;2.24;78.60
9695;BME280;4690;52.422;13.486;2024-01-30T04:36:07;102630.06;;;2.20;78.65
9695;BME280;4690;52.422;13.486;2024-01-30T04:38:34;102634.47;;;2.21;78.49
9695;BME280;4690;52.422;13.486;2024-01-30T04:41:00;102624.75;;;2.19;79.01
9695;BME280;4690;52.422;13.486;2024-01-30T04:43:25;102616.78;;;2.17;78.96
9695;BME280;4690;52.422;13.486;2024-01-30T04:45:52;102617.91;;;2.15;78.69
9695;BME280;4690;52.422;13.486;2024-01-30T04:48:17;102617.16;;;2.13;78.56
9695;BME280;4690;52.422;13.486;2024-01-30T04:50:43;102619.88;;;2.13;78.57
9695;BME280;4690;52.422;13.486;2024-01-30T04:53:09;102618.16;;;2.12;79.16
9695;BME280;4690;52.422;13.486;2024-01-30T04:55:35;102622.72;;;2.11;78.89
9695;BME280;4690;52.422;13.486;2024-01-30T04:58:01;102624.53;;;2.11;78.66
9695;BME280;4690;52.422;13.486;2024-01-30T05:00:27;102618.16;;;2.12;78.34
9695;BME280;4690;52.422;13.486;2024-01-30T05:02:55;102621.72;;;2.12;79.17
9695;BME280;4690;52.422;13.486;2024-01-30T05:05:20;102624.53;;;2.11;79.00
9695;BME280;4690;52.422;13.486;2024-01-30T05:07:47;102620.97;;;2.10;78.84
9695;BME280;4690;52.422;13.486;2024-01-30T05:10:13;102621.97;;;2.09;79.00
9695;BME280;4690;52.422;13.486;2024-01-30T05:12:39;102629.22;;;2.09;78.94
9695;BME280;4690;52.422;13.486;2024-01-30T05:15:06;102624.69;;;2.09;79.17
9695;BME280;4690;52.422;13.486;2024-01-30T05:17:32;102629.94;;;2.11;79.48
9695;BME280;4690;52.422;13.486;2024-01-30T05:19:58;102620.00;;;2.11;79.55
9695;BME280;4690;52.422;13.486;2024-01-30T05:22:24;102625.41;;;2.11;79.61
9695;BME280;4690;52.422;13.486;2024-01-30T05:24:50;102620.88;;;2.12;79.69
9695;BME280;4690;52.422;13.486;2024-01-30T05:27:16;102624.53;;;2.11;79.00
9695;BME280;4690;52.422;13.486;2024-01-30T05:29:41;102618.16;;;2.12;79.18
9695;BME280;4690;52.422;13.486;2024-01-30T05:32:07;102620.72;;;2.13;79.26
9695;BME280;4690;52.422;13.486;2024-01-30T05:34:33;102628.13;;;2.11;79.03
9695;BME280;4690;52.422;13.486;2024-01-30T05:36:59;102623.69;;;2.10;79.15
9695;BME280;4690;52.422;13.486;2024-01-30T05:39:24;102621.81;;;2.11;79.59
9695;BME280;4690;52.422;13.486;2024-01-30T05:41:50;102614.59;;;2.11;79.34
9695;BME280;4690;52.422;13.486;2024-01-30T05:44:16;102614.59;;;2.11;79.59
9695;BME280;4690;52.422;13.486;2024-01-30T05:46:42;102610.53;;;2.17;79.90
9695;BME280;4690;52.422;13.486;2024-01-30T05:49:07;102604.38;;;2.15;79.35
9695;BME280;4690;52.422;13.486;2024-01-30T05:51:33;102609.91;;;2.13;79.55
9695;BME280;4690;52.422;13.486;2024-01-30T05:53:59;102609.03;;;2.13;80.01
9695;BME280;4690;52.422;13.486;2024-01-30T05:56:24;102608.19;;;2.12;79.70
9695;BME280;4690;52.422;13.486;2024-01-30T05:58:50;102605.59;;;2.11;80.17
9695;BME280;4690;52.422;13.486;2024-01-30T06:01:16;102610.03;;;2.12;80.39
9695;BME280;4690;52.422;13.486;2024-01-30T06:03:43;102603.63;;;2.13;80.45
9695;BME280;4690;52.422;13.486;2024-01-30T06:06:09;102609.03;;;2.13;80.31
9695;BME280;4690;52.422;13.486;2024-01-30T06:08:35;102612.59;;;2.13;79.89
9695;BME280;4690;52.422;13.486;2024-01-30T06:11:01;102606.34;;;2.13;80.45
9695;BME280;4690;52.422;13.486;2024-01-30T06:13:26;102604.50;;;2.13;79.87
9695;BME280;4690;52.422;13.486;2024-01-30T06:15:52;102613.59;;;2.12;79.77
9695;BME280;4690;52.422;13.486;2024-01-30T06:18:18;102606.50;;;2.11;79.88
9695;BME280;4690;52.422;13.486;2024-01-30T06:20:44;102610.03;;;2.12;80.21
9695;BME280;4690;52.422;13.486;2024-01-30T06:23:10;102608.31;;;2.11;79.80
9695;BME280;4690;52.422;13.486;2024-01-30T06:25:35;102613.84;;;2.09;79.78
9695;BME280;4690;52.422;13.486;2024-01-30T06:28:01;102606.50;;;2.11;79.88
9695;BME280;4690;52.422;13.486;2024-01-30T06:30:27;102610.03;;;2.12;79.64
9695;BME280;4690;52.422;13.486;2024-01-30T06:32:53;102598.47;;;2.10;80.31
9695;BME280;4690;52.422;13.486;2024-01-30T06:35:18;102596.78;;;2.09;79.92
9695;BME280;4690;52.422;13.486;2024-01-30T06:37:44;102596.78;;;2.09;79.77
9695;BME280;4690;52.422;13.486;2024-01-30T06:40:11;102598.47;;;2.10;80.51
9695;BME280;4690;52.422;13.486;2024-01-30T06:42:37;102605.59;;;2.11;80.04
9695;BME280;4690;52.422;13.486;2024-01-30T06:45:03;102603.03;;;2.09;80.50
9695;BME280;4690;52.422;13.486;2024-01-30T06:47:29;102591.22;;;2.10;80.54
9695;BME280;4690;52.422;13.486;2024-01-30T06:49:56;102603.91;;;2.10;80.62
9695;BME280;4690;52.422;13.486;2024-01-30T06:52:22;102601.19;;;2.10;80.12
9695;BME280;4690;52.422;13.486;2024-01-30T06:54:47;102597.50;;;2.11;79.96
9695;BME280;4690;52.422;13.486;2024-01-30T06:57:13;102597.50;;;2.11;80.06
9695;BME280;4690;52.422;13.486;2024-01-30T06:59:39;102608.31;;;2.11;80.02
9695;BME280;4690;52.422;13.486;2024-01-30T07:02:10;102610.75;;;2.14;80.24
9695;BME280;4690;52.422;13.486;2024-01-30T07:04:36;102609.78;;;2.15;80.00
9695;BME280;4690;52.422;13.486;2024-01-30T07:07:06;102609.66;;;2.16;80.37
9695;BME280;4690;52.422;13.486;2024-01-30T07:09:37;102603.88;;;2.21;80.02
9695;BME280;4690;52.422;13.486;2024-01-30T07:12:03;102601.16;;;2.21;80.44
9695;BME280;4690;52.422;13.486;2024-01-30T07:14:29;102607.06;;;2.26;80.35
9695;BME280;4690;52.422;13.486;2024-01-30T07:16:54;102608.66;;;2.29;80.39
9695;BME280;4690;52.422;13.486;2024-01-30T07:19:20;102606.56;;;2.32;80.00
9695;BME280;4690;52.422;13.486;2024-01-30T07:21:46;102610.84;;;2.35;80.21
9695;BME280;4690;52.422;13.486;2024-01-30T07:24:12;102603.06;;;2.41;80.19
9695;BME280;4690;52.422;13.486;2024-01-30T07:26:37;102601.84;;;2.45;80.15
9695;BME280;4690;52.422;13.486;2024-01-30T07:29:03;102595.91;;;2.52;79.91
9695;BME280;4690;52.422;13.486;2024-01-30T07:31:29;102592.09;;;2.54;80.25
9695;BME280;4690;52.422;13.486;2024-01-30T07:33:55;102590.72;;;2.60;80.53
9695;BME280;4690;52.422;13.486;2024-01-30T07:36:21;102598.91;;;2.69;80.32
9695;BME280;4690;52.422;13.486;2024-01-30T07:38:46;102595.31;;;2.80;79.89
9695;BME280;4690;52.422;13.486;2024-01-30T07:41:12;102608.59;;;2.83;79.72
9695;BME280;4690;52.422;13.486;2024-01-30T07:43:40;102595.25;;;2.91;79.76
9695;BME280;4690;52.422;13.486;2024-01-30T07:46:06;102593.88;;;2.97;79.79
9695;BME280;4690;52.422;13.486;2024-01-30T07:48:33;102595.94;;;3.05;79.88
9695;BME280;4690;52.422;13.486;2024-01-30T07:51:00;102589.97;;;3.11;79.97
9695;BME280;4690;52.422;13.486;2024-01-30T07:53:25;102593.75;;;3.20;80.02
9695;BME280;4690;52.422;13.486;2024-01-30T07:55:52;102591.22;;;3.28;79.37
9695;BME280;4690;52.422;13.486;2024-01-30T07:58:17;102597.69;;;3.36;79.28
9695;BME280;4690;52.422;13.486;2024-01-30T08:00:44;102591.72;;;3.43;79.52
9695;BME280;4690;52.422;13.486;2024-01-30T08:03:10;102600.06;;;3.51;79.33
9695;BME280;4690;52.422;13.486;2024-01-30T08:05:36;102592.38;;;3.56;79.24
9695;BME280;4690;52.422;13.486;2024-01-30T08:08:02;102595.53;;;3.61;78.82
9695;BME280;4690;52.422;13.486;2024-01-30T08:10:28;102593.13;;;3.68;79.00
9695;BME280;4690;52.422;13.486;2024-01-30T08:12:53;102588.34;;;3.81;78.28
9695;BME280;4690;52.422;13.486;2024-01-30T08:15:19;102586.78;;;3.78;77.46
9695;BME280;4690;52.422;13.486;2024-01-30T08:17:45;102588.06;;;3.84;77.68
9695;BME280;4690;52.422;13.486;2024-01-30T08:20:11;102591.25;;;3.99;77.49
9695;BME280;4690;52.422;13.486;2024-01-30T08:22:40;102584.75;;;4.11;76.80
9695;BME280;4690;52.422;13.486;2024-01-30T08:25:07;102589.22;;;4.32;76.59
9695;BME280;4690;52.422;13.486;2024-01-30T08:27:33;102581.09;;;4.51;76.21
9695;BME280;4690;52.422;13.486;2024-01-30T08:30:02;102579.53;;;4.68;76.12
9695;BME280;4690;52.422;13.486;2024-01-30T08:32:27;102577.22;;;4.83;75.27
9695;BME280;4690;52.422;13.486;2024-01-30T08:34:53;102566.94;;;4.96;74.41
9695;BME280;4690;52.422;13.486;2024-01-30T08:37:19;102570.47;;;5.16;73.47
9695;BME280;4690;52.422;13.486;2024-01-30T08:39:44;102563.56;;;5.31;73.27
9695;BME280;4690;52.422;13.486;2024-01-30T08:42:10;102568.50;;;5.46;72.74
9695;BME280;4690;52.422;13.486;2024-01-30T08:44:36;102561.19;;;5.56;72.22
9695;BME280;4690;52.422;13.486;2024-01-30T08:47:02;102554.72;;;5.67;71.37
9695;BME280;4690;52.422;13.486;2024-01-30T08:49:28;102552.47;;;5.80;70.41
9695;BME280;4690;52.422;13.486;2024-01-30T08:51:54;102556.59;;;5.94;70.75
9695;BME280;4690;52.422;13.486;2024-01-30T08:54:20;102556.97;;;6.09;69.75
9695;BME280;4690;52.422;13.486;2024-01-30T08:56:45;102557.28;;;6.23;69.44
9695;BME280;4690;52.422;13.486;2024-01-30T08:59:11;102558.75;;;6.36;69.34
9695;BME280;4690;52.422;13.486;2024-01-30T09:01:37;102566.72;;;6.47;68.95
9695;BME280;4690;52.422;13.486;2024-01-30T09:04:03;102566.72;;;6.47;66.88
9695;BME280;4690;52.422;13.486;2024-01-30T09:06:28;102567.09;;;6.34;66.41
9695;BME280;4690;52.422;13.486;2024-01-30T09:08:54;102569.75;;;6.26;66.91
9695;BME280;4690;52.422;13.486;2024-01-30T09:11:20;102558.38;;;6.31;65.79
9695;BME280;4690;52.422;13.486;2024-01-30T09:13:46;102562.81;;;6.49;66.40
9695;BME280;4690;52.422;13.486;2024-01-30T09:16:11;102556.13;;;6.26;66.41
9695;BME280;4690;52.422;13.486;2024-01-30T09:18:37;102557.47;;;6.40;65.88
9695;BME280;4690;52.422;13.486;2024-01-30T09:21:03;102556.53;;;6.49;66.01
9695;BME280;4690;52.422;13.486;2024-01-30T09:23:29;102562.06;;;6.57;65.96
9695;BME280;4690;52.422;13.486;2024-01-30T09:25:55;102559.09;;;6.50;66.11
9695;BME280;4690;52.422;13.486;2024-01-30T09:28:21;102562.75;;;6.77;65.42
9695;BME280;4690;52.422;13.486;2024-01-30T09:30:47;102567.03;;;6.80;65.00
9695;BME280;4690;52.422;13.486;2024-01-30T09:33:13;102570.75;;;6.96;64.96
9695;BME280;4690;52.422;13.486;2024-01-30T09:35:39;102568.69;;;7.16;64.17
9695;BME280;4690;52.422;13.486;2024-01-30T09:38:04;102566.41;;;7.12;64.09
9695;BME280;4690;52.422;13.486;2024-01-30T09:40:30;102564.59;;;7.21;63.67
9695;BME280;4690;52.422;13.486;2024-01-30T09:42:58;102564.47;;;7.22;63.84
9695;BME280;4690;52.422;13.486;2024-01-30T09:45:26;102551.59;;;7.32;63.56
9695;BME280;4690;52.422;13.486;2024-01-30T09:47:52;102559.72;;;7.24;63.70
9695;BME280;4690;52.422;13.486;2024-01-30T09:50:19;102546.53;;;7.46;63.83
9695;BME280;4690;52.422;13.486;2024-01-30T09:52:46;102553.16;;;7.69;63.57
9695;BME280;4690;52.422;13.486;2024-01-30T09:55:13;102551.31;;;7.78;62.91
9695;BME280;4690;52.422;13.486;2024-01-30T09:57:41;102548.94;;;7.91;62.49
9695;BME280;4690;52.422;13.486;2024-01-30T10:00:07;102552.22;;;7.95;62.29
9695;BME280;4690;52.422;13.486;2024-01-30T10:02:35;102549.72;;;8.09;62.04
9695;BME280;4690;52.422;13.486;2024-01-30T10:05:02;102552.16;;;8.29;61.59
9695;BME280;4690;52.422;13.486;2024-01-30T10:07:28;102556.47;;;8.40;60.49
9695;BME280;4690;52.422;13.486;2024-01-30T10:09:54;102551.88;;;8.48;60.00
9695;BME280;4690;52.422;13.486;2024-01-30T10:12:22;102549.16;;;8.57;59.04
9695;BME280;4690;52.422;13.486;2024-01-30T10:14:48;102546.25;;;8.58;59.45
9695;BME280;4690;52.422;13.486;2024-01-30T10:17:14;102544.38;;;8.59;58.69
9695;BME280;4690;52.422;13.486;2024-01-30T10:19:41;102530.91;;;8.73;57.54
9695;BME280;4690;52.422;13.486;2024-01-30T10:22:09;102534.63;;;8.72;57.30
9695;BME280;4690;52.422;13.486;2024-01-30T10:24:38;102525.25;;;8.75;56.43
9695;BME280;4690;52.422;13.486;2024-01-30T10:27:05;102533.97;;;8.70;57.22
9695;BME280;4690;52.422;13.486;2024-01-30T10:29:31;102531.59;;;8.67;56.83
9695;BME280;4690;52.422;13.486;2024-01-30T10:32:02;102531.41;;;8.77;55.73
9695;BME280;4690;52.422;13.486;2024-01-30T10:34:29;102522.34;;;8.85;55.30
9695;BME280;4690;52.422;13.486;2024-01-30T10:37:15;102523.19;;;9.02;55.36
9695;BME280;4690;52.422;13.486;2024-01-30T10:39:44;102524.88;;;9.03;54.23
9695;BME280;4690;52.422;13.486;2024-01-30T10:42:15;102521.16;;;8.95;54.48
9695;BME280;4690;52.422;13.486;2024-01-30T10:45:07;102519.97;;;8.90;53.70
9695;BME280;4690;52.422;13.486;2024-01-30T10:47:41;102525.59;;;8.96;53.35
9695;BME280;4690;52.422;13.486;2024-01-30T10:50:09;102518.22;;;8.97;52.72
9695;BME280;4690;52.422;13.486;2024-01-30T10:52:36;102518.09;;;8.90;53.14
9695;BME280;4690;52.422;13.486;2024-01-30T10:55:04;102531.22;;;9.03;52.53
9695;BME280;4690;52.422;13.486;2024-01-30T10:57:35;102520.59;;;9.16;51.99
9695;BME280;4690;52.422;13.486;2024-01-30T11:00:13;102518.94;;;8.74;52.68
9695;BME280;4690;52.422;13.486;2024-01-30T11:02:43;102512.63;;;8.82;53.04
9695;BME280;4690;52.422;13.486;2024-01-30T11:05:10;102522.13;;;9.19;52.91
9695;BME280;4690;52.422;13.486;2024-01-30T11:07:39;102516.97;;;9.40;51.91
9695;BME280;4690;52.422;13.486;2024-01-30T11:10:09;102515.09;;;9.33;52.27
9695;BME280;4690;52.422;13.486;2024-01-30T11:12:40;102514.06;;;9.34;51.53
9695;BME280;4690;52.422;13.486;2024-01-30T11:15:09;102518.16;;;9.38;52.18
9695;BME280;4690;52.422;13.486;2024-01-30T11:17:53;102514.84;;;9.59;51.33
9695;BME280;4690;52.422;13.486;2024-01-30T11:20:29;102519.97;;;9.54;51.23
9695;BME280;4690;52.422;13.486;2024-01-30T11:22:59;102509.22;;;9.52;50.89
9695;BME280;4690;52.422;13.486;2024-01-30T11:25:27;102509.84;;;9.62;51.35
9695;BME280;4690;52.422;13.486;2024-01-30T11:27:56;102506.16;;;9.86;50.55
9695;BME280;4690;52.422;13.486;2024-01-30T11:30:25;102506.56;;;10.06;50.71
9695;BME280;4690;52.422;13.486;2024-01-30T11:33:06;102502.31;;;9.64;50.05
9695;BME280;4690;52.422;13.486;2024-01-30T11:35:38;102490.78;;;9.85;50.72
9695;BME280;4690;52.422;13.486;2024-01-30T11:38:06;102497.19;;;9.70;50.78
9695;BME280;4690;52.422;13.486;2024-01-30T11:40:34;102496.13;;;9.71;51.73
9695;BME280;4690;52.422;13.486;2024-01-30T11:43:02;102502.25;;;10.12;50.89
9695;BME280;4690;52.422;13.486;2024-01-30T11:45:28;102494.97;;;9.96;50.46
9695;BME280;4690;52.422;13.486;2024-01-30T11:47:55;102492.56;;;10.24;50.45
9695;BME280;4690;52.422;13.486;2024-01-30T11:50:21;102497.81;;;10.42;50.00
9695;BME280;4690;52.422;13.486;2024-01-30T11:52:48;102488.03;;;10.63;49.83
9695;BME280;4690;52.422;13.486;2024-01-30T11:55:15;102496.00;;;10.72;49.39
9695;BME280;4690;52.422;13.486;2024-01-30T11:57:41;102500.25;;;10.37;50.10
9695;BME280;4690;52.422;13.486;2024-01-30T12:00:15;102495.28;;;10.55;50.11
9695;BME280;4690;52.422;13.486;2024-01-30T12:02:42;102494.34;;;10.86;50.00
9695;BME280;4690;52.422;13.486;2024-01-30T12:05:09;102483.28;;;10.94;49.44
9695;BME280;4690;52.422;13.486;2024-01-30T12:07:38;102492.13;;;10.67;50.03
9695;BME280;4690;52.422;13.486;2024-01-30T12:10:03;102479.31;;;10.82;49.65
9695;BME280;4690;52.422;13.486;2024-01-30T12:12:31;102479.88;;;10.54;50.55
9695;BME280;4690;52.422;13.486;2024-01-30T12:14:57;102475.91;;;10.11;52.02
9695;BME280;4690;52.422;13.486;2024-01-30T12:17:32;102471.97;;;10.14;52.12
9695;BME280;4690;52.422;13.486;2024-01-30T12:22:41;102466.00;;;10.56;51.42
9695;BME280;4690;52.422;13.486;2024-01-30T12:25:15;102473.50;;;10.62;51.57
9695;BME280;4690;52.422;13.486;2024-01-30T12:27:46;102472.50;;;10.09;52.16
9695;BME280;4690;52.422;13.486;2024-01-30T12:30:16;102471.59;;;10.17;52.48
9695;BME280;4690;52.422;13.486;2024-01-30T12:32:44;102460.81;;;10.38;52.42
9695;BME280;4690;52.422;13.486;2024-01-30T12:35:12;102452.44;;;9.85;53.17
9695;BME280;4690;52.422;13.486;2024-01-30T12:37:39;102456.22;;;10.07;53.19
9695;BME280;4690;52.422;13.486;2024-01-30T12:40:07;102439.94;;;10.14;53.78
9695;BME280;4690;52.422;13.486;2024-01-30T12:42:33;102439.69;;;10.47;52.92
9695;BME280;4690;52.422;13.486;2024-01-30T12:45:03;102438.22;;;10.59;52.19
9695;BME280;4690;52.422;13.486;2024-01-30T12:47:32;102428.19;;;10.66;52.24
9695;BME280;4690;52.422;13.486;2024-01-30T12:49:58;102436.03;;;10.54;52.72
9695;BME280;4690;52.422;13.486;2024-01-30T12:52:25;102431.16;;;10.65;52.21
9695;BME280;4690;52.422;13.486;2024-01-30T12:54:51;102427.13;;;10.52;51.93
9695;BME280;4690;52.422;13.486;2024-01-30T12:57:18;102421.28;;;10.55;52.34
9695;BME280;4690;52.422;13.486;2024-01-30T12:59:45;102421.84;;;10.51;52.97
9695;BME280;4690;52.422;13.486;2024-01-30T13:02:13;102417.63;;;10.78;52.41
9695;BME280;4690;52.422;13.486;2024-01-30T13:04:40;102418.16;;;10.59;52.77
9695;BME280;4690;52.422;13.486;2024-01-30T13:07:05;102423.41;;;10.68;52.72
9695;BME280;4690;52.422;13.486;2024-01-30T13:09:31;102415.19;;;10.83;52.66
9695;BME280;4690;52.422;13.486;2024-01-30T13:11:58;102418.34;;;11.10;51.71
9695;BME280;4690;52.422;13.486;2024-01-30T13:14:25;102421.94;;;11.10;51.75
9695;BME280;4690;52.422;13.486;2024-01-30T13:16:52;102416.31;;;11.04;51.88
9695;BME280;4690;52.422;13.486;2024-01-30T13:19:18;102416.03;;;10.84;52.74